AMS weather

Amsterdam Airport Schiphol
Amsterdam, Noord-Holland, Netherlands

Public forecast

Using degrees Celsius for public forecast. Weather courtesy of forecast.io.

METAR (pilot weather report)

Retrieved 2018/06/19 08:25 UTC (0 seconds ago):

EHAM 190825Z 28010KT 250V310 9999 SCT011 BKN018 18/15 Q1022 TEMPO BKN014

TAF (pilot weather forecast)

Retrieved 2018/06/19 06:29 UTC (2 hours ago):

TAF EHAM 190509Z 1906/2012 26010KT 9999 SCT018 BKN040 PROB30 TEMPO 1906/1909 4500 -DZ BKN012 BECMG 1917/1920 21005KT FEW025 PROB30 2003/2007 4000 BR BKN007 BECMG 2007/2010 23015KT CAVOK